Bluffton, IN (46714)

7:57 AM EDT on May 27, 2017 (GMT -0400)
Rigby Timbers | | Change Station
Active Advisory: Flood Warning

Elev 856 ft 40.71 °N, 85.17 °W | Updated 17 seconds ago

Overcast
Overcast
62.2 °F
Feels Like 62.2 °F
N
2.0
Wind Variable Wind from East

Today
High -- | Low -- °F
--% Chance of Precip.
Yesterday
High -- | Low -- °F
Precip. -- in
Pressure 29.86 in
Visibility 3.0 miles
Clouds Overcast 500 ft
Dew Point 61 °F
Humidity 98%
Rainfall 0.09 in
Snow Depth Not available.
6:14 AM 9:02 PM
Waxing Crescent, 4% visible
METAR KFWA 271154Z 07006KT 3SM -DZ BR OVC005 16/15 A2986 RMK AO2 DZB39 SLP110 P0000 60006 70089 T01610150 10167 20161 53013
Pressure 29.86 in
Visibility 3.0 miles
Clouds Overcast 500 ft
Dew Point 61 °F
Humidity 98%
Rainfall 0.09 in
Snow Depth Not available.
6:14 AM 9:02 PM
Waxing Crescent, 4% visible
METAR KFWA 271154Z 07006KT 3SM -DZ BR OVC005 16/15 A2986 RMK AO2 DZB39 SLP110 P0000 60006 70089 T01610150 10167 20161 53013

Get Your Daily Forecast Email!

Thanks for signing up!

Be on the lookout for a verification email in your inbox.

You'll start receiving severe weather alerts in your inbox..

×

10-Day Weather Forecast

Almanac

Astronomy

May. 27, 2017 Rise Set
Actual Time
Civil Twilight
Nautical Twilight
Astronomical Twilight
Moon
Length of Visible Light
Length of Day
Tomorrow will be .
, % of the Moon is Illuminated

Today's Extremes

State Highs State Lows

Community

WunderPhotos

Category 6

Welcome to Category 6. This is the collective home for Weather Underground's featured writeups by Dr. Jeff Masters (right), Bob Henson (left), Chris Burt, and other regular contributors.

Nearby

Air Quality

  Air Quality AQ Index Pollutant
Not available.

Snow Depth

Station Depth Elevation

Earthquake Activity

City Distance Mag. Time & Date
Minimum magnitude displayed is 2.5.

Coastal Water Temperatures

Place Temperature

Stations

Nearby Weather Stations

Station Location Temp. Windchill Dew Point Humidity Wind Precip. Elev Updated Type
                   

Watches & Warnings

Flood Warning
Issued: 7:13 AM EDT May. 27, 2017 – National Weather Service

The National Weather Service in northern Indiana has issued a

* Flood Warning for
the Wabash River near Bluffton
* until Monday afternoon.
* At 7 am Saturday the stage was 10.0 feet and steady.
* Minor flooding is forecast.
* Flood stage is 10.0 feet.
* Forecast... the river will rise above flood stage Saturday morning
and crest near 11.3 feet around 8 PM Saturday may 27 and fall
below flood stage around 1 PM Sunday may 28.
* At 11.0 feet... River Road at Bluffton begins to flood.


Lat... Lon 4085 8552 4088 8541 4078 8512 4072 8508
      4069 8511